createdAt,value
2018-09-21T00:00:46.221Z,14.89
2018-09-21T00:03:15.412Z,14.80
2018-09-21T00:05:44.668Z,14.78
2018-09-21T00:08:13.813Z,14.75
2018-09-21T00:10:42.965Z,14.74
2018-09-21T00:13:12.220Z,14.74
2018-09-21T00:15:41.400Z,14.73
2018-09-21T00:18:10.525Z,14.72
2018-09-21T00:20:39.714Z,14.69
2018-09-21T00:23:09.039Z,14.64
2018-09-21T00:25:38.177Z,14.55
2018-09-21T00:28:07.371Z,14.51
2018-09-21T00:30:40.271Z,14.49
2018-09-21T00:33:09.644Z,14.48
2018-09-21T00:35:39.018Z,14.46
2018-09-21T00:38:08.143Z,14.44
2018-09-21T00:40:37.436Z,14.43
2018-09-21T00:43:06.712Z,14.46
2018-09-21T00:45:35.845Z,14.48
2018-09-21T00:48:05.021Z,14.44
2018-09-21T00:50:34.158Z,14.41
2018-09-21T00:53:03.328Z,14.38
2018-09-21T00:55:32.655Z,14.34
2018-09-21T00:58:01.958Z,14.31
2018-09-21T01:00:31.101Z,14.30
2018-09-21T01:03:03.598Z,14.30
2018-09-21T01:05:32.859Z,14.25
2018-09-21T01:08:01.990Z,14.17
2018-09-21T01:10:31.187Z,14.17
2018-09-21T01:13:00.315Z,14.14
2018-09-21T01:15:29.476Z,14.16
2018-09-21T01:17:58.653Z,14.17
2018-09-21T01:20:27.776Z,14.18
2018-09-21T01:22:56.941Z,14.17
2018-09-21T01:25:26.209Z,14.15
2018-09-21T01:27:55.349Z,14.12
2018-09-21T01:30:24.498Z,14.10
2018-09-21T01:32:53.729Z,14.08
2018-09-21T01:35:23.033Z,14.06
2018-09-21T01:37:52.319Z,14.08
2018-09-21T01:40:22.242Z,14.08
2018-09-21T01:42:51.366Z,14.09
2018-09-21T01:45:20.550Z,14.08
2018-09-21T01:47:49.712Z,14.04
2018-09-21T01:50:18.869Z,13.97
2018-09-21T01:52:48.018Z,13.93
2018-09-21T01:55:17.170Z,13.88
2018-09-21T01:57:46.930Z,13.85
2018-09-21T02:00:16.133Z,13.82
2018-09-21T02:02:45.257Z,13.79
2018-09-21T02:05:14.427Z,13.80
2018-09-21T02:07:43.561Z,13.80
2018-09-21T02:10:14.444Z,13.82
2018-09-21T02:12:43.583Z,13.82
2018-09-21T02:15:12.725Z,13.81
2018-09-21T02:17:41.885Z,13.81
2018-09-21T02:20:11.010Z,13.80
2018-09-21T02:22:40.183Z,13.80
2018-09-21T02:25:09.379Z,13.82
2018-09-21T02:27:38.513Z,13.80
2018-09-21T02:30:07.740Z,13.77
2018-09-21T02:32:36.892Z,13.82
2018-09-21T02:35:06.488Z,13.79
2018-09-21T02:37:35.623Z,13.81
2018-09-21T02:40:04.991Z,13.81
2018-09-21T02:42:34.142Z,13.83
2018-09-21T02:45:03.292Z,13.79
2018-09-21T02:47:32.461Z,13.74
2018-09-21T02:50:01.599Z,13.69
2018-09-21T02:52:30.788Z,13.59
2018-09-21T02:54:59.933Z,13.58
2018-09-21T02:57:29.120Z,13.54
2018-09-21T02:59:58.491Z,13.54
2018-09-21T03:02:27.684Z,13.53
2018-09-21T03:04:57.401Z,13.51
2018-09-21T03:07:26.596Z,13.48
2018-09-21T03:09:55.926Z,13.45
2018-09-21T03:12:25.093Z,13.43
2018-09-21T03:14:54.284Z,13.39
2018-09-21T03:17:23.424Z,13.37
2018-09-21T03:19:52.580Z,13.41
2018-09-21T03:22:21.716Z,13.41
2018-09-21T03:24:50.913Z,13.41
2018-09-21T03:27:20.062Z,13.37
2018-09-21T03:29:49.193Z,13.34
2018-09-21T03:32:18.357Z,13.37
2018-09-21T03:34:47.542Z,13.37
2018-09-21T03:37:16.691Z,13.38
2018-09-21T03:39:45.845Z,13.34
2018-09-21T03:42:14.997Z,13.30
2018-09-21T03:44:44.133Z,13.27
2018-09-21T03:47:13.263Z,13.27
2018-09-21T03:49:42.668Z,13.24
2018-09-21T03:52:11.821Z,13.21
2018-09-21T03:54:40.993Z,13.19
2018-09-21T03:57:10.179Z,13.16
2018-09-21T03:59:39.325Z,13.16
2018-09-21T04:02:08.560Z,13.13
2018-09-21T04:04:41.182Z,13.12
2018-09-21T04:07:11.113Z,13.13
2018-09-21T04:09:40.277Z,13.14
2018-09-21T04:12:09.412Z,13.11
2018-09-21T04:14:38.582Z,13.09
2018-09-21T04:17:07.968Z,13.06
2018-09-21T04:19:37.197Z,13.01
2018-09-21T04:22:06.357Z,12.96
2018-09-21T04:24:35.507Z,12.99
2018-09-21T04:27:04.839Z,12.98
2018-09-21T04:29:34.107Z,12.97
2018-09-21T04:32:03.329Z,12.94
2018-09-21T04:34:32.579Z,12.89
2018-09-21T04:37:01.761Z,12.82
2018-09-21T04:39:31.228Z,12.79
2018-09-21T04:42:00.344Z,12.80
2018-09-21T04:44:29.487Z,12.79
2018-09-21T04:46:58.615Z,12.80
2018-09-21T04:49:27.733Z,12.82
2018-09-21T04:51:56.903Z,12.85
2018-09-21T04:54:26.024Z,12.87
2018-09-21T04:56:55.253Z,12.86
2018-09-21T04:59:24.409Z,12.88
2018-09-21T05:01:53.529Z,12.91
2018-09-21T05:04:22.694Z,12.91
2018-09-21T05:06:51.907Z,12.91
2018-09-21T05:09:21.048Z,12.85
2018-09-21T05:11:50.205Z,12.86
2018-09-21T05:14:19.421Z,12.89
2018-09-21T05:16:48.606Z,12.93
2018-09-21T05:19:17.778Z,12.66
2018-09-21T05:21:46.932Z,13.05
2018-09-21T05:24:16.051Z,13.11
2018-09-21T05:26:45.173Z,13.16
2018-09-21T05:29:14.316Z,13.22
2018-09-21T05:31:43.454Z,13.29
2018-09-21T05:34:12.632Z,13.38
2018-09-21T05:36:41.742Z,13.49
2018-09-21T05:39:13.094Z,13.57
2018-09-21T05:41:42.254Z,13.62
2018-09-21T05:44:12.076Z,13.68
2018-09-21T05:46:41.981Z,13.74
2018-09-21T05:49:11.137Z,13.80
2018-09-21T05:51:40.323Z,13.89
2018-09-21T05:54:09.448Z,14.02
2018-09-21T05:56:39.331Z,14.13
2018-09-21T05:59:08.593Z,14.21
2018-09-21T06:01:37.794Z,14.28
2018-09-21T06:04:07.054Z,14.39
2018-09-21T06:06:36.241Z,14.49
2018-09-21T06:09:08.561Z,14.31
2018-09-21T06:11:37.818Z,14.70
2018-09-21T06:14:07.331Z,14.82
2018-09-21T06:16:36.397Z,14.89
2018-09-21T06:19:05.806Z,14.97
2018-09-21T06:21:35.285Z,15.10
2018-09-21T06:24:04.923Z,15.21
2018-09-21T06:26:34.052Z,15.33
2018-09-21T06:29:03.198Z,15.45
2018-09-21T06:31:32.340Z,15.66
2018-09-21T06:34:01.489Z,15.71
2018-09-21T06:36:30.623Z,15.83
2018-09-21T06:38:59.796Z,15.92
2018-09-21T06:41:28.967Z,16.01
2018-09-21T06:43:58.468Z,16.13
2018-09-21T06:46:27.597Z,16.20
2018-09-21T06:48:56.724Z,16.34
2018-09-21T06:51:25.874Z,16.42
2018-09-21T06:53:55.054Z,16.47
2018-09-21T06:56:25.079Z,16.56
2018-09-21T06:58:55.090Z,16.63
2018-09-21T07:01:24.898Z,16.77
2018-09-21T07:03:54.233Z,16.80
2018-09-21T07:06:23.462Z,16.86
2018-09-21T07:08:54.321Z,17.00
2018-09-21T07:11:23.678Z,17.15
2018-09-21T07:13:53.213Z,17.30
2018-09-21T07:16:22.718Z,17.46
2018-09-21T07:18:52.594Z,17.63
2018-09-21T07:21:22.595Z,17.82
2018-09-21T07:23:51.769Z,17.97
2018-09-21T07:26:20.940Z,18.18
2018-09-21T07:28:50.658Z,18.30
2018-09-21T07:31:19.836Z,18.37
2018-09-21T07:33:49.126Z,18.44
2018-09-21T07:36:18.248Z,18.47
2018-09-21T07:38:47.552Z,18.58
2018-09-21T07:41:16.905Z,18.74
2018-09-21T07:43:46.601Z,18.90
2018-09-21T07:46:15.968Z,19.02
2018-09-21T07:48:45.170Z,18.97
2018-09-21T07:51:14.372Z,19.06
2018-09-21T07:53:43.689Z,19.19
2018-09-21T07:56:13.045Z,19.34
2018-09-21T07:58:42.270Z,19.47
2018-09-21T08:01:11.529Z,19.68
2018-09-21T08:03:40.825Z,19.75
2018-09-21T08:06:10.052Z,19.90
2018-09-21T08:08:39.300Z,20.05
2018-09-21T08:11:08.810Z,20.19
2018-09-21T08:13:37.986Z,19.98
2018-09-21T08:16:07.149Z,19.76
2018-09-21T08:18:36.360Z,19.92
2018-09-21T08:21:05.673Z,20.18
2018-09-21T08:23:35.348Z,20.51
2018-09-21T08:26:04.464Z,20.70
2018-09-21T08:28:34.242Z,21.06
2018-09-21T08:31:03.759Z,21.20
2018-09-21T08:33:33.140Z,20.96
2018-09-21T08:36:02.394Z,20.85
2018-09-21T08:38:31.842Z,20.87
2018-09-21T08:41:01.154Z,21.06
2018-09-21T08:43:30.381Z,21.33
2018-09-21T08:46:00.901Z,21.53
2018-09-21T08:48:30.106Z,21.77
2018-09-21T08:50:59.252Z,21.92
2018-09-21T08:53:29.209Z,21.97
2018-09-21T08:55:58.465Z,21.69
2018-09-21T08:58:27.574Z,21.70
2018-09-21T09:00:57.069Z,21.96
2018-09-21T09:03:26.352Z,21.92
2018-09-21T09:05:55.549Z,22.00
2018-09-21T09:08:26.065Z,22.16
2018-09-21T09:10:55.411Z,22.40
2018-09-21T09:13:24.609Z,22.69
2018-09-21T09:15:54.021Z,22.97
2018-09-21T09:18:23.208Z,23.28
2018-09-21T09:20:52.365Z,23.55
2018-09-21T09:23:21.846Z,23.47
2018-09-21T09:25:51.128Z,23.63
2018-09-21T09:28:20.299Z,23.47
2018-09-21T09:30:49.744Z,23.25
2018-09-21T09:33:18.882Z,23.35
2018-09-21T09:35:48.039Z,23.49
2018-09-21T09:38:17.214Z,23.88
2018-09-21T09:40:46.482Z,24.24
2018-09-21T09:43:15.653Z,24.40
2018-09-21T09:45:44.790Z,24.60
2018-09-21T09:48:14.054Z,24.82
2018-09-21T09:50:43.179Z,25.16
2018-09-21T09:53:12.353Z,25.24
2018-09-21T09:55:41.507Z,25.41
2018-09-21T09:58:10.705Z,25.67
2018-09-21T10:00:45.233Z,25.89
2018-09-21T10:03:14.447Z,26.11
2018-09-21T10:05:44.512Z,25.92
2018-09-21T10:08:14.241Z,26.13
2018-09-21T10:10:43.406Z,26.32
2018-09-21T10:13:12.579Z,26.48
2018-09-21T10:15:41.765Z,26.57
2018-09-21T10:18:10.940Z,26.70
2018-09-21T10:20:40.338Z,26.56
2018-09-21T10:23:09.634Z,26.44
2018-09-21T10:25:38.755Z,26.75
2018-09-21T10:28:08.086Z,26.94
2018-09-21T10:30:37.190Z,26.80
2018-09-21T10:33:06.493Z,27.11
2018-09-21T10:35:35.703Z,27.45
2018-09-21T10:38:04.776Z,27.79
2018-09-21T10:40:33.927Z,27.81
2018-09-21T10:43:03.206Z,27.60
2018-09-21T10:45:32.221Z,27.26
2018-09-21T10:48:01.347Z,27.33
2018-09-21T10:50:30.482Z,27.30
2018-09-21T10:52:59.666Z,27.43
2018-09-21T10:55:28.815Z,27.61
2018-09-21T10:57:58.009Z,27.95
2018-09-21T11:00:28.164Z,28.10
2018-09-21T11:02:57.301Z,27.97
2018-09-21T11:05:26.460Z,27.99
2018-09-21T11:07:55.596Z,28.27
2018-09-21T11:10:24.717Z,28.60
2018-09-21T11:12:53.889Z,28.76
2018-09-21T11:15:23.016Z,28.93
2018-09-21T11:17:52.802Z,28.95
2018-09-21T11:20:21.938Z,28.90
2018-09-21T11:22:51.153Z,28.98
2018-09-21T11:25:20.281Z,29.15
2018-09-21T11:27:49.401Z,29.13
2018-09-21T11:30:18.587Z,29.32
2018-09-21T11:32:47.969Z,29.21
2018-09-21T11:35:17.149Z,29.07
2018-09-21T11:37:46.611Z,28.74
2018-09-21T11:40:15.869Z,28.66
2018-09-21T11:42:45.040Z,28.70
2018-09-21T11:45:14.451Z,28.92
2018-09-21T11:47:47.402Z,29.01
2018-09-21T11:50:16.652Z,29.22
2018-09-21T11:52:45.758Z,29.33
2018-09-21T11:55:15.093Z,29.31
2018-09-21T11:57:44.331Z,29.45
2018-09-21T12:00:13.546Z,29.33
2018-09-21T12:02:46.507Z,29.27
2018-09-21T12:05:15.737Z,29.29
2018-09-21T12:07:44.873Z,29.50
2018-09-21T12:10:14.169Z,29.56
2018-09-21T12:12:43.392Z,29.62
2018-09-21T12:15:12.565Z,29.75
2018-09-21T12:17:41.791Z,29.76
2018-09-21T12:20:10.948Z,29.77
2018-09-21T12:22:40.129Z,29.84
2018-09-21T12:25:09.382Z,29.86
2018-09-21T12:27:38.640Z,29.79
2018-09-21T12:30:15.309Z,29.75
2018-09-21T12:32:44.452Z,29.57
2018-09-21T12:35:13.657Z,29.17
2018-09-21T12:37:42.877Z,29.36
2018-09-21T12:40:12.236Z,29.45
2018-09-21T12:42:41.349Z,29.58
2018-09-21T12:45:10.579Z,29.65
2018-09-21T12:47:39.763Z,29.68
2018-09-21T12:50:08.957Z,29.76
2018-09-21T12:52:38.482Z,29.76
2018-09-21T12:55:07.847Z,29.72
2018-09-21T12:57:37.192Z,29.65
2018-09-21T13:00:08.526Z,29.49
2018-09-21T13:02:38.155Z,29.42
2018-09-21T13:05:07.711Z,29.31
2018-09-21T13:07:37.663Z,29.24
2018-09-21T13:10:08.436Z,29.35
2018-09-21T13:12:38.132Z,29.34
2018-09-21T13:15:07.637Z,29.33
2018-09-21T13:17:36.840Z,29.28
2018-09-21T13:20:06.339Z,29.10
2018-09-21T13:22:35.591Z,29.05
2018-09-21T13:25:04.896Z,29.16
2018-09-21T13:27:34.663Z,29.11
2018-09-21T13:30:04.828Z,29.02
2018-09-21T13:32:34.031Z,29.08
2018-09-21T13:35:03.300Z,29.14
2018-09-21T13:37:32.478Z,29.02
2018-09-21T13:40:01.653Z,29.14
2018-09-21T13:42:30.825Z,29.21
2018-09-21T13:45:00.053Z,29.15
2018-09-21T13:47:29.217Z,29.07
2018-09-21T13:49:58.360Z,28.98
2018-09-21T13:52:27.557Z,29.14
2018-09-21T13:54:56.744Z,29.07
2018-09-21T13:57:26.189Z,29.03
2018-09-21T13:59:55.545Z,29.01
2018-09-21T14:02:24.735Z,28.91
2018-09-21T14:04:54.052Z,28.83
2018-09-21T14:07:23.296Z,29.00
2018-09-21T14:09:52.617Z,28.86
2018-09-21T14:12:21.822Z,28.95
2018-09-21T14:14:51.129Z,29.00
2018-09-21T14:17:20.293Z,28.80
2018-09-21T14:19:49.761Z,28.85
2018-09-21T14:22:18.935Z,28.90
2018-09-21T14:24:48.181Z,28.78
2018-09-21T14:27:17.365Z,28.83
2018-09-21T14:29:46.612Z,28.84
2018-09-21T14:32:16.137Z,28.81
2018-09-21T14:34:45.509Z,28.79
2018-09-21T14:37:15.073Z,28.75
2018-09-21T14:39:44.264Z,28.76
2018-09-21T14:42:13.761Z,28.72
2018-09-21T14:44:42.989Z,28.72
2018-09-21T14:47:13.260Z,28.72
2018-09-21T14:49:42.503Z,28.68
2018-09-21T14:52:11.951Z,28.63
2018-09-21T14:54:41.050Z,28.51
2018-09-21T14:57:10.245Z,28.41
2018-09-21T14:59:40.773Z,28.35
2018-09-21T15:02:10.082Z,28.32
2018-09-21T15:04:39.383Z,28.30
2018-09-21T15:07:09.148Z,28.18
2018-09-21T15:09:38.472Z,28.10
2018-09-21T15:12:07.693Z,28.26
2018-09-21T15:14:38.453Z,28.11
2018-09-21T15:17:07.813Z,28.10
2018-09-21T15:19:36.991Z,28.12
2018-09-21T15:22:06.530Z,28.22
2018-09-21T15:24:35.718Z,28.07
2018-09-21T15:27:05.285Z,28.00
2018-09-21T15:29:34.399Z,28.00
2018-09-21T15:32:03.553Z,27.88
2018-09-21T15:34:32.691Z,27.82
2018-09-21T15:37:01.832Z,27.78
2018-09-21T15:39:30.938Z,27.73
2018-09-21T15:42:01.023Z,27.61
2018-09-21T15:44:30.171Z,27.54
2018-09-21T15:46:59.332Z,27.46
2018-09-21T15:49:28.534Z,27.38
2018-09-21T15:51:57.756Z,27.28
2018-09-21T15:54:27.152Z,27.23
2018-09-21T15:56:56.373Z,27.12
2018-09-21T15:59:25.566Z,27.02
2018-09-21T16:01:54.766Z,26.96
2018-09-21T16:04:23.900Z,26.90
2018-09-21T16:06:53.079Z,26.82
2018-09-21T16:09:22.212Z,26.75
2018-09-21T16:11:51.343Z,26.69
2018-09-21T16:14:20.535Z,26.61
2018-09-21T16:16:49.652Z,26.55
2018-09-21T16:19:19.898Z,26.48
2018-09-21T16:21:49.389Z,26.40
2018-09-21T16:24:18.553Z,26.26
2018-09-21T16:26:48.011Z,26.12
2018-09-21T16:29:17.449Z,25.98
2018-09-21T16:31:46.606Z,25.85
2018-09-21T16:34:16.022Z,25.76
2018-09-21T16:36:45.483Z,25.53
2018-09-21T16:39:14.668Z,25.37
2018-09-21T16:41:44.046Z,25.20
2018-09-21T16:44:13.266Z,24.96
2018-09-21T16:46:42.784Z,24.80
2018-09-21T16:49:12.248Z,24.69
2018-09-21T16:51:41.453Z,24.47
2018-09-21T16:54:10.561Z,24.26
2018-09-21T16:56:40.452Z,24.14
2018-09-21T16:59:09.627Z,23.95
2018-09-21T17:01:38.754Z,23.71
2018-09-21T17:04:08.775Z,23.53
2018-09-21T17:06:37.954Z,23.40
2018-09-21T17:09:09.985Z,23.32
2018-09-21T17:11:39.125Z,23.23
2018-09-21T17:14:09.225Z,23.17
2018-09-21T17:16:38.694Z,23.10
2018-09-21T17:19:08.537Z,23.01
2018-09-21T17:21:37.737Z,22.88
2018-09-21T17:24:07.014Z,22.77
2018-09-21T17:26:36.475Z,22.69
2018-09-21T17:29:05.817Z,22.63
2018-09-21T17:31:35.131Z,22.59
2018-09-21T17:34:04.253Z,22.58
2018-09-21T17:36:33.471Z,22.51
2018-09-21T17:39:02.738Z,22.44
2018-09-21T17:41:31.864Z,22.32
2018-09-21T17:44:01.094Z,22.26
2018-09-21T17:46:30.251Z,22.25
2018-09-21T17:48:59.682Z,22.21
2018-09-21T17:51:29.298Z,22.16
2018-09-21T17:53:58.460Z,22.10
2018-09-21T17:56:27.628Z,22.05
2018-09-21T17:58:56.765Z,22.00
2018-09-21T18:01:26.101Z,21.96
2018-09-21T18:03:55.338Z,21.90
2018-09-21T18:06:24.496Z,21.84
2018-09-21T18:08:53.676Z,21.79
2018-09-21T18:11:23.770Z,21.73
2018-09-21T18:13:53.001Z,21.64
2018-09-21T18:16:22.252Z,21.59
2018-09-21T18:18:51.450Z,21.52
2018-09-21T18:21:20.587Z,21.41
2018-09-21T18:23:49.980Z,21.27
2018-09-21T18:26:19.085Z,21.15
2018-09-21T18:28:48.259Z,21.08
2018-09-21T18:31:17.489Z,20.92
2018-09-21T18:33:46.687Z,20.78
2018-09-21T18:36:15.801Z,20.66
2018-09-21T18:38:45.004Z,20.62
2018-09-21T18:41:14.178Z,20.59
2018-09-21T18:43:43.426Z,20.59
2018-09-21T18:46:12.548Z,20.57
2018-09-21T18:48:41.744Z,20.58
2018-09-21T18:51:10.989Z,20.57
2018-09-21T18:53:40.825Z,20.54
2018-09-21T18:56:09.938Z,20.55
2018-09-21T18:58:39.062Z,20.51
2018-09-21T19:01:08.301Z,20.48
2018-09-21T19:03:37.441Z,20.47
2018-09-21T19:06:06.637Z,20.46
2018-09-21T19:08:35.810Z,20.46
2018-09-21T19:11:04.985Z,20.48
2018-09-21T19:13:34.148Z,20.51
2018-09-21T19:16:03.928Z,20.51
2018-09-21T19:18:33.091Z,20.41
2018-09-21T19:21:02.242Z,20.38
2018-09-21T19:23:31.437Z,20.36
2018-09-21T19:26:01.550Z,20.27
2018-09-21T19:28:30.707Z,20.27
2018-09-21T19:31:01.502Z,20.30
2018-09-21T19:33:30.672Z,20.32
2018-09-21T19:35:59.845Z,20.32
2018-09-21T19:38:29.111Z,20.33
2018-09-21T19:40:58.313Z,20.33
2018-09-21T19:43:27.510Z,20.35
2018-09-21T19:45:56.668Z,20.34
2018-09-21T19:48:25.833Z,20.33
2018-09-21T19:50:55.071Z,20.03
2018-09-21T19:53:25.445Z,20.27
2018-09-21T19:55:54.621Z,20.27
2018-09-21T19:58:23.863Z,20.30
2018-09-21T20:00:53.084Z,20.34
2018-09-21T20:03:22.685Z,20.47
2018-09-21T20:05:51.870Z,20.53
2018-09-21T20:08:21.096Z,20.66
2018-09-21T20:10:50.308Z,20.53
2018-09-21T20:13:19.582Z,20.54
2018-09-21T20:15:48.765Z,20.61
2018-09-21T20:18:18.050Z,20.78
2018-09-21T20:20:48.666Z,20.90
2018-09-21T20:23:17.788Z,20.90
2018-09-21T20:25:47.865Z,20.86
2018-09-21T20:28:17.089Z,20.76
2018-09-21T20:30:51.430Z,20.68
2018-09-21T20:33:25.675Z,20.69
2018-09-21T20:35:54.868Z,20.57
2018-09-21T20:41:02.496Z,20.21
2018-09-21T20:43:32.145Z,20.10
2018-09-21T20:46:01.293Z,20.03
2018-09-21T20:48:30.435Z,20.06
2018-09-21T20:50:59.564Z,19.98
2018-09-21T20:53:28.680Z,20.01
2018-09-21T20:55:57.854Z,19.89
2018-09-21T20:58:26.996Z,19.71
2018-09-21T21:00:56.199Z,19.63
2018-09-21T21:03:26.884Z,19.57
2018-09-21T21:05:56.002Z,19.56
2018-09-21T21:08:25.484Z,19.54
2018-09-21T21:11:04.496Z,19.52
2018-09-21T21:13:34.657Z,19.50
2018-09-21T21:16:03.837Z,19.49
2018-09-21T21:18:32.992Z,19.47
2018-09-21T21:21:02.242Z,19.40
2018-09-21T21:23:31.382Z,19.31
2018-09-21T21:26:02.213Z,19.28
2018-09-21T21:28:31.507Z,19.24
2018-09-21T21:31:00.711Z,19.26
2018-09-21T21:33:29.832Z,19.25
2018-09-21T21:35:59.337Z,19.25
2018-09-21T21:38:31.536Z,19.24
2018-09-21T21:41:00.786Z,19.21
2018-09-21T21:43:30.277Z,19.21
2018-09-21T21:46:02.379Z,19.18
2018-09-21T21:48:31.593Z,19.18
2018-09-21T21:51:03.591Z,19.18
2018-09-21T21:53:33.146Z,19.18
2018-09-21T21:56:02.322Z,19.20
2018-09-21T21:58:32.063Z,19.17
2018-09-21T22:01:06.548Z,19.16
2018-09-21T22:03:35.902Z,19.13
2018-09-21T22:06:06.687Z,19.14
2018-09-21T22:08:38.048Z,19.21
2018-09-21T22:11:16.928Z,19.19
2018-09-21T22:13:51.465Z,19.32
2018-09-21T22:16:20.699Z,19.31
2018-09-21T22:18:50.283Z,19.35
2018-09-21T22:21:19.489Z,19.34
2018-09-21T22:23:48.624Z,19.31
2018-09-21T22:26:17.824Z,19.28
2018-09-21T22:28:47.201Z,19.29
2018-09-21T22:31:16.439Z,19.26
2018-09-21T22:33:45.588Z,19.26
2018-09-21T22:36:14.744Z,19.24
2018-09-21T22:38:44.008Z,19.24
2018-09-21T22:41:13.862Z,19.23
2018-09-21T22:43:43.026Z,19.23
2018-09-21T22:46:12.228Z,19.24
2018-09-21T22:48:41.469Z,19.27
2018-09-21T22:51:10.611Z,19.35
2018-09-21T22:53:41.913Z,19.38
2018-09-21T22:56:11.106Z,19.38
2018-09-21T22:58:40.358Z,19.36
2018-09-21T23:01:10.395Z,19.47
2018-09-21T23:03:39.645Z,19.43
2018-09-21T23:06:09.076Z,19.41
2018-09-21T23:08:38.233Z,19.36
2018-09-21T23:11:07.693Z,19.32
2018-09-21T23:13:36.776Z,19.27
2018-09-21T23:16:05.953Z,19.24
2018-09-21T23:18:35.110Z,19.23
2018-09-21T23:21:04.282Z,19.12
2018-09-21T23:23:33.438Z,19.00
2018-09-21T23:26:02.650Z,18.89
2018-09-21T23:28:31.743Z,18.83
2018-09-21T23:31:00.846Z,18.73
2018-09-21T23:33:29.978Z,18.55
2018-09-21T23:35:59.096Z,18.33
2018-09-21T23:38:28.309Z,18.10
2018-09-21T23:40:57.549Z,17.84
2018-09-21T23:43:26.719Z,17.51
2018-09-21T23:45:55.839Z,17.21
2018-09-21T23:48:24.998Z,16.87
2018-09-21T23:50:54.141Z,16.43
2018-09-21T23:53:23.881Z,16.07
2018-09-21T23:55:53.044Z,15.59
2018-09-21T23:58:22.227Z,15.19
